sensor_id;sensor_type;location;lat;lon;timestamp;P1;durP1;ratioP1;P2;durP2;ratioP2
40154;SDS011;25875;48.202;16.334;2023-07-29T00:01:36;3.65;;;2.45;;
40154;SDS011;25875;48.202;16.334;2023-07-29T00:04:05;4.00;;;2.55;;
40154;SDS011;25875;48.202;16.334;2023-07-29T00:06:31;3.83;;;3.03;;
40154;SDS011;25875;48.202;16.334;2023-07-29T00:08:59;3.13;;;2.58;;
40154;SDS011;25875;48.202;16.334;2023-07-29T00:11:26;3.88;;;2.42;;
40154;SDS011;25875;48.202;16.334;2023-07-29T00:13:53;3.90;;;2.67;;
40154;SDS011;25875;48.202;16.334;2023-07-29T00:16:20;3.80;;;2.78;;
40154;SDS011;25875;48.202;16.334;2023-07-29T00:18:47;3.92;;;3.03;;
40154;SDS011;25875;48.202;16.334;2023-07-29T00:21:14;3.60;;;2.53;;
40154;SDS011;25875;48.202;16.334;2023-07-29T00:23:41;4.07;;;2.58;;
40154;SDS011;25875;48.202;16.334;2023-07-29T00:26:09;4.43;;;2.75;;
40154;SDS011;25875;48.202;16.334;2023-07-29T00:28:35;7.45;;;3.35;;
40154;SDS011;25875;48.202;16.334;2023-07-29T00:31:02;3.72;;;2.72;;
40154;SDS011;25875;48.202;16.334;2023-07-29T00:33:29;3.53;;;3.00;;
40154;SDS011;25875;48.202;16.334;2023-07-29T00:35:56;3.33;;;2.60;;
40154;SDS011;25875;48.202;16.334;2023-07-29T00:38:26;3.85;;;2.72;;
40154;SDS011;25875;48.202;16.334;2023-07-29T00:40:53;3.88;;;2.75;;
40154;SDS011;25875;48.202;16.334;2023-07-29T00:43:21;4.32;;;2.83;;
40154;SDS011;25875;48.202;16.334;2023-07-29T00:45:48;4.45;;;3.10;;
40154;SDS011;25875;48.202;16.334;2023-07-29T00:48:15;3.63;;;2.65;;
40154;SDS011;25875;48.202;16.334;2023-07-29T00:50:42;3.78;;;3.10;;
40154;SDS011;25875;48.202;16.334;2023-07-29T00:53:09;5.90;;;3.28;;
40154;SDS011;25875;48.202;16.334;2023-07-29T00:55:36;3.90;;;2.50;;
40154;SDS011;25875;48.202;16.334;2023-07-29T00:58:03;4.18;;;2.92;;
40154;SDS011;25875;48.202;16.334;2023-07-29T01:00:31;3.80;;;3.00;;
40154;SDS011;25875;48.202;16.334;2023-07-29T01:02:58;3.72;;;2.80;;
40154;SDS011;25875;48.202;16.334;2023-07-29T01:05:26;3.55;;;2.75;;
40154;SDS011;25875;48.202;16.334;2023-07-29T01:08:02;3.55;;;2.70;;
40154;SDS011;25875;48.202;16.334;2023-07-29T01:10:37;3.83;;;2.75;;
40154;SDS011;25875;48.202;16.334;2023-07-29T01:13:13;3.75;;;2.60;;
40154;SDS011;25875;48.202;16.334;2023-07-29T01:15:48;4.20;;;3.10;;
40154;SDS011;25875;48.202;16.334;2023-07-29T01:18:21;4.68;;;3.15;;
40154;SDS011;25875;48.202;16.334;2023-07-29T01:20:49;3.65;;;2.88;;
40154;SDS011;25875;48.202;16.334;2023-07-29T01:23:24;6.13;;;3.05;;
40154;SDS011;25875;48.202;16.334;2023-07-29T01:25:51;3.78;;;3.08;;
40154;SDS011;25875;48.202;16.334;2023-07-29T01:28:18;4.47;;;3.10;;
40154;SDS011;25875;48.202;16.334;2023-07-29T01:30:44;4.47;;;3.10;;
40154;SDS011;25875;48.202;16.334;2023-07-29T01:33:16;3.63;;;2.90;;
40154;SDS011;25875;48.202;16.334;2023-07-29T01:35:46;4.43;;;3.05;;
40154;SDS011;25875;48.202;16.334;2023-07-29T01:38:17;3.80;;;2.92;;
40154;SDS011;25875;48.202;16.334;2023-07-29T01:40:47;4.22;;;3.08;;
40154;SDS011;25875;48.202;16.334;2023-07-29T01:43:16;3.85;;;3.13;;
40154;SDS011;25875;48.202;16.334;2023-07-29T01:45:48;5.15;;;3.13;;
40154;SDS011;25875;48.202;16.334;2023-07-29T01:48:15;4.03;;;2.95;;
40154;SDS011;25875;48.202;16.334;2023-07-29T01:50:42;4.05;;;3.42;;
40154;SDS011;25875;48.202;16.334;2023-07-29T01:53:09;5.18;;;2.90;;
40154;SDS011;25875;48.202;16.334;2023-07-29T01:55:36;4.30;;;2.67;;
40154;SDS011;25875;48.202;16.334;2023-07-29T01:58:04;4.82;;;3.20;;
40154;SDS011;25875;48.202;16.334;2023-07-29T02:00:30;4.97;;;2.97;;
40154;SDS011;25875;48.202;16.334;2023-07-29T02:02:57;4.95;;;3.03;;
40154;SDS011;25875;48.202;16.334;2023-07-29T02:05:24;4.82;;;2.67;;
40154;SDS011;25875;48.202;16.334;2023-07-29T02:07:50;5.05;;;3.08;;
40154;SDS011;25875;48.202;16.334;2023-07-29T02:10:17;4.00;;;3.00;;
40154;SDS011;25875;48.202;16.334;2023-07-29T02:12:44;3.40;;;2.63;;
40154;SDS011;25875;48.202;16.334;2023-07-29T02:15:12;3.50;;;2.80;;
40154;SDS011;25875;48.202;16.334;2023-07-29T02:17:40;3.65;;;2.80;;
40154;SDS011;25875;48.202;16.334;2023-07-29T02:20:08;3.65;;;2.83;;
40154;SDS011;25875;48.202;16.334;2023-07-29T02:22:36;4.43;;;2.60;;
40154;SDS011;25875;48.202;16.334;2023-07-29T02:25:03;4.35;;;2.85;;
40154;SDS011;25875;48.202;16.334;2023-07-29T02:27:30;5.00;;;3.10;;
40154;SDS011;25875;48.202;16.334;2023-07-29T02:29:57;3.20;;;2.50;;
40154;SDS011;25875;48.202;16.334;2023-07-29T02:32:25;4.35;;;2.70;;
40154;SDS011;25875;48.202;16.334;2023-07-29T02:34:52;3.38;;;2.40;;
40154;SDS011;25875;48.202;16.334;2023-07-29T02:37:19;4.63;;;2.75;;
40154;SDS011;25875;48.202;16.334;2023-07-29T02:39:45;3.53;;;2.65;;
40154;SDS011;25875;48.202;16.334;2023-07-29T02:42:12;3.70;;;2.67;;
40154;SDS011;25875;48.202;16.334;2023-07-29T02:44:39;3.47;;;2.42;;
40154;SDS011;25875;48.202;16.334;2023-07-29T02:47:06;4.57;;;2.53;;
40154;SDS011;25875;48.202;16.334;2023-07-29T02:49:34;3.83;;;2.70;;
40154;SDS011;25875;48.202;16.334;2023-07-29T02:52:01;3.20;;;2.15;;
40154;SDS011;25875;48.202;16.334;2023-07-29T02:54:27;3.35;;;2.20;;
40154;SDS011;25875;48.202;16.334;2023-07-29T02:56:54;4.18;;;2.60;;
40154;SDS011;25875;48.202;16.334;2023-07-29T02:59:21;3.53;;;2.42;;
40154;SDS011;25875;48.202;16.334;2023-07-29T03:01:48;4.00;;;2.33;;
40154;SDS011;25875;48.202;16.334;2023-07-29T03:04:14;4.15;;;2.75;;
40154;SDS011;25875;48.202;16.334;2023-07-29T03:06:42;3.28;;;2.20;;
40154;SDS011;25875;48.202;16.334;2023-07-29T03:09:09;3.08;;;2.00;;
40154;SDS011;25875;48.202;16.334;2023-07-29T03:11:36;3.30;;;2.30;;
40154;SDS011;25875;48.202;16.334;2023-07-29T03:14:02;3.50;;;2.20;;
40154;SDS011;25875;48.202;16.334;2023-07-29T03:16:29;3.55;;;2.38;;
40154;SDS011;25875;48.202;16.334;2023-07-29T03:18:56;3.22;;;2.22;;
40154;SDS011;25875;48.202;16.334;2023-07-29T03:21:25;2.72;;;1.90;;
40154;SDS011;25875;48.202;16.334;2023-07-29T03:23:53;3.40;;;2.15;;
40154;SDS011;25875;48.202;16.334;2023-07-29T03:26:20;4.03;;;2.25;;
40154;SDS011;25875;48.202;16.334;2023-07-29T03:28:47;3.53;;;2.15;;
40154;SDS011;25875;48.202;16.334;2023-07-29T03:31:13;3.33;;;2.00;;
40154;SDS011;25875;48.202;16.334;2023-07-29T03:33:40;2.92;;;2.00;;
40154;SDS011;25875;48.202;16.334;2023-07-29T03:36:06;3.05;;;2.13;;
40154;SDS011;25875;48.202;16.334;2023-07-29T03:38:33;3.75;;;2.10;;
40154;SDS011;25875;48.202;16.334;2023-07-29T03:41:06;3.05;;;2.20;;
40154;SDS011;25875;48.202;16.334;2023-07-29T03:43:33;4.63;;;2.72;;
40154;SDS011;25875;48.202;16.334;2023-07-29T03:46:00;3.45;;;2.15;;
40154;SDS011;25875;48.202;16.334;2023-07-29T03:48:27;3.60;;;2.30;;
40154;SDS011;25875;48.202;16.334;2023-07-29T03:50:53;3.33;;;1.98;;
40154;SDS011;25875;48.202;16.334;2023-07-29T03:53:20;3.53;;;2.40;;
40154;SDS011;25875;48.202;16.334;2023-07-29T03:55:47;3.53;;;2.33;;
40154;SDS011;25875;48.202;16.334;2023-07-29T03:58:16;3.70;;;2.22;;
40154;SDS011;25875;48.202;16.334;2023-07-29T04:00:43;3.40;;;2.38;;
40154;SDS011;25875;48.202;16.334;2023-07-29T04:03:09;4.18;;;2.25;;
40154;SDS011;25875;48.202;16.334;2023-07-29T04:05:36;3.40;;;2.30;;
40154;SDS011;25875;48.202;16.334;2023-07-29T04:08:03;3.28;;;2.30;;
40154;SDS011;25875;48.202;16.334;2023-07-29T04:10:30;3.60;;;2.50;;
40154;SDS011;25875;48.202;16.334;2023-07-29T04:12:57;3.70;;;2.53;;
40154;SDS011;25875;48.202;16.334;2023-07-29T04:15:25;3.60;;;2.45;;
40154;SDS011;25875;48.202;16.334;2023-07-29T04:17:52;3.15;;;2.28;;
40154;SDS011;25875;48.202;16.334;2023-07-29T04:20:18;3.15;;;2.33;;
40154;SDS011;25875;48.202;16.334;2023-07-29T04:22:45;3.50;;;2.38;;
40154;SDS011;25875;48.202;16.334;2023-07-29T04:25:12;3.63;;;2.22;;
40154;SDS011;25875;48.202;16.334;2023-07-29T04:27:39;3.35;;;2.22;;
40154;SDS011;25875;48.202;16.334;2023-07-29T04:30:06;3.50;;;2.42;;
40154;SDS011;25875;48.202;16.334;2023-07-29T04:32:34;3.60;;;2.40;;
40154;SDS011;25875;48.202;16.334;2023-07-29T04:35:01;3.80;;;2.15;;
40154;SDS011;25875;48.202;16.334;2023-07-29T04:37:28;3.53;;;2.50;;
40154;SDS011;25875;48.202;16.334;2023-07-29T04:39:55;3.40;;;2.33;;
40154;SDS011;25875;48.202;16.334;2023-07-29T04:42:22;3.20;;;2.38;;
40154;SDS011;25875;48.202;16.334;2023-07-29T04:44:48;3.17;;;2.08;;
40154;SDS011;25875;48.202;16.334;2023-07-29T04:47:15;3.22;;;2.08;;
40154;SDS011;25875;48.202;16.334;2023-07-29T04:49:43;3.60;;;2.53;;
40154;SDS011;25875;48.202;16.334;2023-07-29T04:52:10;4.38;;;2.53;;
40154;SDS011;25875;48.202;16.334;2023-07-29T04:54:37;3.35;;;2.50;;
40154;SDS011;25875;48.202;16.334;2023-07-29T04:57:04;3.70;;;2.25;;
40154;SDS011;25875;48.202;16.334;2023-07-29T04:59:31;3.33;;;2.28;;
40154;SDS011;25875;48.202;16.334;2023-07-29T05:01:57;3.58;;;2.33;;
40154;SDS011;25875;48.202;16.334;2023-07-29T05:04:24;3.38;;;2.33;;
40154;SDS011;25875;48.202;16.334;2023-07-29T05:06:52;3.47;;;2.55;;
40154;SDS011;25875;48.202;16.334;2023-07-29T05:09:19;3.42;;;2.33;;
40154;SDS011;25875;48.202;16.334;2023-07-29T05:11:46;3.40;;;2.30;;
40154;SDS011;25875;48.202;16.334;2023-07-29T05:14:14;2.92;;;1.92;;
40154;SDS011;25875;48.202;16.334;2023-07-29T05:16:42;5.03;;;2.55;;
40154;SDS011;25875;48.202;16.334;2023-07-29T05:19:09;3.63;;;2.53;;
40154;SDS011;25875;48.202;16.334;2023-07-29T05:21:37;4.53;;;2.40;;
40154;SDS011;25875;48.202;16.334;2023-07-29T05:24:05;3.15;;;2.08;;
40154;SDS011;25875;48.202;16.334;2023-07-29T05:26:32;3.10;;;2.10;;
40154;SDS011;25875;48.202;16.334;2023-07-29T05:28:59;4.45;;;2.47;;
40154;SDS011;25875;48.202;16.334;2023-07-29T05:31:25;3.50;;;2.22;;
40154;SDS011;25875;48.202;16.334;2023-07-29T05:33:53;3.45;;;2.30;;
40154;SDS011;25875;48.202;16.334;2023-07-29T05:36:19;3.40;;;2.25;;
40154;SDS011;25875;48.202;16.334;2023-07-29T05:38:46;3.47;;;2.38;;
40154;SDS011;25875;48.202;16.334;2023-07-29T05:41:14;3.25;;;2.15;;
40154;SDS011;25875;48.202;16.334;2023-07-29T05:43:41;3.28;;;2.05;;
40154;SDS011;25875;48.202;16.334;2023-07-29T05:46:08;4.25;;;2.38;;
40154;SDS011;25875;48.202;16.334;2023-07-29T05:48:35;6.03;;;2.00;;
40154;SDS011;25875;48.202;16.334;2023-07-29T05:51:02;3.30;;;2.28;;
40154;SDS011;25875;48.202;16.334;2023-07-29T05:53:30;3.67;;;2.33;;
40154;SDS011;25875;48.202;16.334;2023-07-29T05:55:57;3.10;;;2.28;;
40154;SDS011;25875;48.202;16.334;2023-07-29T05:58:25;2.97;;;2.13;;
40154;SDS011;25875;48.202;16.334;2023-07-29T06:00:52;3.22;;;2.20;;
40154;SDS011;25875;48.202;16.334;2023-07-29T06:03:19;3.92;;;2.20;;
40154;SDS011;25875;48.202;16.334;2023-07-29T06:05:45;3.55;;;2.03;;
40154;SDS011;25875;48.202;16.334;2023-07-29T06:08:12;3.70;;;1.95;;
40154;SDS011;25875;48.202;16.334;2023-07-29T06:10:39;5.10;;;2.63;;
40154;SDS011;25875;48.202;16.334;2023-07-29T06:13:05;4.57;;;2.03;;
40154;SDS011;25875;48.202;16.334;2023-07-29T06:15:33;3.78;;;2.20;;
40154;SDS011;25875;48.202;16.334;2023-07-29T06:18:00;2.95;;;2.13;;
40154;SDS011;25875;48.202;16.334;2023-07-29T06:20:27;2.88;;;2.00;;
40154;SDS011;25875;48.202;16.334;2023-07-29T06:22:54;2.97;;;2.10;;
40154;SDS011;25875;48.202;16.334;2023-07-29T06:25:21;2.63;;;1.75;;
40154;SDS011;25875;48.202;16.334;2023-07-29T06:27:48;3.15;;;1.92;;
40154;SDS011;25875;48.202;16.334;2023-07-29T06:30:14;3.00;;;2.00;;
40154;SDS011;25875;48.202;16.334;2023-07-29T06:32:42;7.30;;;2.05;;
40154;SDS011;25875;48.202;16.334;2023-07-29T06:35:09;3.00;;;1.95;;
40154;SDS011;25875;48.202;16.334;2023-07-29T06:37:36;3.17;;;2.25;;
40154;SDS011;25875;48.202;16.334;2023-07-29T06:40:03;3.03;;;1.95;;
40154;SDS011;25875;48.202;16.334;2023-07-29T06:42:30;3.70;;;2.13;;
40154;SDS011;25875;48.202;16.334;2023-07-29T06:44:57;2.70;;;1.70;;
40154;SDS011;25875;48.202;16.334;2023-07-29T06:47:24;4.70;;;2.15;;
40154;SDS011;25875;48.202;16.334;2023-07-29T06:49:53;3.55;;;2.15;;
40154;SDS011;25875;48.202;16.334;2023-07-29T06:52:20;2.60;;;1.95;;
40154;SDS011;25875;48.202;16.334;2023-07-29T06:54:46;2.28;;;1.67;;
40154;SDS011;25875;48.202;16.334;2023-07-29T06:57:13;2.90;;;1.92;;
40154;SDS011;25875;48.202;16.334;2023-07-29T06:59:40;3.20;;;2.15;;
40154;SDS011;25875;48.202;16.334;2023-07-29T07:02:07;2.83;;;1.90;;
40154;SDS011;25875;48.202;16.334;2023-07-29T07:04:33;2.75;;;1.92;;
40154;SDS011;25875;48.202;16.334;2023-07-29T07:07:02;3.95;;;1.90;;
40154;SDS011;25875;48.202;16.334;2023-07-29T07:09:29;3.42;;;1.90;;
40154;SDS011;25875;48.202;16.334;2023-07-29T07:11:55;5.07;;;2.42;;
40154;SDS011;25875;48.202;16.334;2023-07-29T07:14:22;5.55;;;2.30;;
40154;SDS011;25875;48.202;16.334;2023-07-29T07:16:49;3.45;;;1.80;;
40154;SDS011;25875;48.202;16.334;2023-07-29T07:19:15;2.80;;;1.92;;
40154;SDS011;25875;48.202;16.334;2023-07-29T07:21:42;3.30;;;2.20;;
40154;SDS011;25875;48.202;16.334;2023-07-29T07:24:10;2.90;;;2.00;;
40154;SDS011;25875;48.202;16.334;2023-07-29T07:26:37;3.75;;;1.80;;
40154;SDS011;25875;48.202;16.334;2023-07-29T07:29:03;4.57;;;2.13;;
40154;SDS011;25875;48.202;16.334;2023-07-29T07:31:32;3.15;;;2.33;;
40154;SDS011;25875;48.202;16.334;2023-07-29T07:34:00;3.97;;;2.30;;
40154;SDS011;25875;48.202;16.334;2023-07-29T07:36:27;3.20;;;2.00;;
40154;SDS011;25875;48.202;16.334;2023-07-29T07:38:54;3.40;;;1.85;;
40154;SDS011;25875;48.202;16.334;2023-07-29T07:41:22;2.83;;;1.90;;
40154;SDS011;25875;48.202;16.334;2023-07-29T07:43:49;2.70;;;1.70;;
40154;SDS011;25875;48.202;16.334;2023-07-29T07:46:15;2.83;;;1.85;;
40154;SDS011;25875;48.202;16.334;2023-07-29T07:48:42;2.80;;;1.60;;
40154;SDS011;25875;48.202;16.334;2023-07-29T07:51:09;4.32;;;1.98;;
40154;SDS011;25875;48.202;16.334;2023-07-29T07:53:37;3.00;;;2.05;;
40154;SDS011;25875;48.202;16.334;2023-07-29T07:56:03;4.43;;;2.28;;
40154;SDS011;25875;48.202;16.334;2023-07-29T07:58:32;2.83;;;1.80;;
40154;SDS011;25875;48.202;16.334;2023-07-29T08:01:02;2.72;;;1.95;;
40154;SDS011;25875;48.202;16.334;2023-07-29T08:03:29;4.55;;;2.10;;
40154;SDS011;25875;48.202;16.334;2023-07-29T08:05:56;2.60;;;1.60;;
40154;SDS011;25875;48.202;16.334;2023-07-29T08:08:23;2.65;;;1.85;;
40154;SDS011;25875;48.202;16.334;2023-07-29T08:10:51;2.75;;;1.70;;
40154;SDS011;25875;48.202;16.334;2023-07-29T08:13:18;2.50;;;1.80;;
40154;SDS011;25875;48.202;16.334;2023-07-29T08:15:47;2.70;;;1.63;;
40154;SDS011;25875;48.202;16.334;2023-07-29T08:18:14;3.08;;;1.67;;
40154;SDS011;25875;48.202;16.334;2023-07-29T08:20:41;6.72;;;2.53;;
40154;SDS011;25875;48.202;16.334;2023-07-29T08:23:17;7.68;;;1.67;;
40154;SDS011;25875;48.202;16.334;2023-07-29T08:25:44;4.00;;;1.90;;
40154;SDS011;25875;48.202;16.334;2023-07-29T08:28:10;2.70;;;1.58;;
40154;SDS011;25875;48.202;16.334;2023-07-29T08:30:37;2.80;;;1.75;;
40154;SDS011;25875;48.202;16.334;2023-07-29T08:33:05;2.88;;;1.80;;
40154;SDS011;25875;48.202;16.334;2023-07-29T08:35:32;2.20;;;1.45;;
40154;SDS011;25875;48.202;16.334;2023-07-29T08:37:59;4.05;;;1.70;;
40154;SDS011;25875;48.202;16.334;2023-07-29T08:40:27;2.33;;;1.52;;
40154;SDS011;25875;48.202;16.334;2023-07-29T08:42:55;2.30;;;1.50;;
40154;SDS011;25875;48.202;16.334;2023-07-29T08:45:24;3.28;;;1.60;;
40154;SDS011;25875;48.202;16.334;2023-07-29T08:47:52;3.05;;;1.50;;
40154;SDS011;25875;48.202;16.334;2023-07-29T08:50:24;2.53;;;1.38;;
40154;SDS011;25875;48.202;16.334;2023-07-29T08:52:51;2.50;;;1.52;;
40154;SDS011;25875;48.202;16.334;2023-07-29T08:55:20;2.60;;;1.60;;
40154;SDS011;25875;48.202;16.334;2023-07-29T08:57:48;3.25;;;1.70;;
40154;SDS011;25875;48.202;16.334;2023-07-29T09:00:14;3.30;;;1.67;;
40154;SDS011;25875;48.202;16.334;2023-07-29T09:02:41;3.78;;;1.73;;
40154;SDS011;25875;48.202;16.334;2023-07-29T09:05:08;3.05;;;1.83;;
40154;SDS011;25875;48.202;16.334;2023-07-29T09:07:36;2.92;;;1.70;;
40154;SDS011;25875;48.202;16.334;2023-07-29T09:10:07;4.25;;;1.92;;
40154;SDS011;25875;48.202;16.334;2023-07-29T09:12:35;2.42;;;1.52;;
40154;SDS011;25875;48.202;16.334;2023-07-29T09:15:02;2.95;;;1.55;;
40154;SDS011;25875;48.202;16.334;2023-07-29T09:17:30;3.13;;;1.60;;
40154;SDS011;25875;48.202;16.334;2023-07-29T09:19:57;2.83;;;1.48;;
40154;SDS011;25875;48.202;16.334;2023-07-29T09:22:25;2.60;;;1.60;;
40154;SDS011;25875;48.202;16.334;2023-07-29T09:24:54;3.03;;;1.88;;
40154;SDS011;25875;48.202;16.334;2023-07-29T09:27:24;4.63;;;1.77;;
40154;SDS011;25875;48.202;16.334;2023-07-29T09:29:52;2.58;;;1.67;;
40154;SDS011;25875;48.202;16.334;2023-07-29T09:32:19;3.17;;;1.70;;
40154;SDS011;25875;48.202;16.334;2023-07-29T09:34:46;4.07;;;1.50;;
40154;SDS011;25875;48.202;16.334;2023-07-29T09:37:16;2.92;;;2.00;;
40154;SDS011;25875;48.202;16.334;2023-07-29T09:39:44;3.33;;;1.58;;
40154;SDS011;25875;48.202;16.334;2023-07-29T09:42:14;2.75;;;1.65;;
40154;SDS011;25875;48.202;16.334;2023-07-29T09:44:43;2.85;;;1.77;;
40154;SDS011;25875;48.202;16.334;2023-07-29T09:47:14;2.10;;;1.30;;
40154;SDS011;25875;48.202;16.334;2023-07-29T09:49:45;3.70;;;1.90;;
40154;SDS011;25875;48.202;16.334;2023-07-29T09:52:13;3.13;;;1.98;;
40154;SDS011;25875;48.202;16.334;2023-07-29T09:54:41;3.67;;;1.65;;
40154;SDS011;25875;48.202;16.334;2023-07-29T09:57:09;2.83;;;1.80;;
40154;SDS011;25875;48.202;16.334;2023-07-29T09:59:38;2.95;;;1.70;;
40154;SDS011;25875;48.202;16.334;2023-07-29T10:02:05;2.65;;;1.80;;
40154;SDS011;25875;48.202;16.334;2023-07-29T10:04:39;2.72;;;1.80;;
40154;SDS011;25875;48.202;16.334;2023-07-29T10:07:08;3.42;;;1.80;;
40154;SDS011;25875;48.202;16.334;2023-07-29T10:09:36;2.65;;;1.73;;
40154;SDS011;25875;48.202;16.334;2023-07-29T10:12:04;3.45;;;1.45;;
40154;SDS011;25875;48.202;16.334;2023-07-29T10:14:32;2.80;;;1.60;;
40154;SDS011;25875;48.202;16.334;2023-07-29T10:17:01;2.55;;;1.60;;
40154;SDS011;25875;48.202;16.334;2023-07-29T10:19:29;4.80;;;2.00;;
40154;SDS011;25875;48.202;16.334;2023-07-29T10:21:59;4.80;;;1.70;;
40154;SDS011;25875;48.202;16.334;2023-07-29T10:24:29;6.63;;;1.73;;
40154;SDS011;25875;48.202;16.334;2023-07-29T10:26:59;3.95;;;1.65;;
40154;SDS011;25875;48.202;16.334;2023-07-29T10:29:28;3.53;;;1.45;;
40154;SDS011;25875;48.202;16.334;2023-07-29T10:31:57;2.75;;;1.58;;
40154;SDS011;25875;48.202;16.334;2023-07-29T10:34:26;2.70;;;1.70;;
40154;SDS011;25875;48.202;16.334;2023-07-29T10:36:54;2.60;;;1.65;;
40154;SDS011;25875;48.202;16.334;2023-07-29T10:39:21;4.57;;;1.73;;
40154;SDS011;25875;48.202;16.334;2023-07-29T10:41:57;2.72;;;1.50;;
40154;SDS011;25875;48.202;16.334;2023-07-29T10:47:17;2.25;;;1.38;;
40154;SDS011;25875;48.202;16.334;2023-07-29T10:49:48;2.45;;;1.48;;
40154;SDS011;25875;48.202;16.334;2023-07-29T10:52:17;2.20;;;1.42;;
40154;SDS011;25875;48.202;16.334;2023-07-29T10:54:54;2.90;;;1.63;;
40154;SDS011;25875;48.202;16.334;2023-07-29T10:57:30;3.20;;;1.65;;
40154;SDS011;25875;48.202;16.334;2023-07-29T10:59:58;2.85;;;1.90;;
40154;SDS011;25875;48.202;16.334;2023-07-29T11:02:28;2.58;;;1.67;;
40154;SDS011;25875;48.202;16.334;2023-07-29T11:04:57;2.15;;;1.50;;
40154;SDS011;25875;48.202;16.334;2023-07-29T11:07:25;3.67;;;1.45;;
40154;SDS011;25875;48.202;16.334;2023-07-29T11:09:58;2.90;;;1.60;;
40154;SDS011;25875;48.202;16.334;2023-07-29T11:12:36;2.30;;;1.52;;
40154;SDS011;25875;48.202;16.334;2023-07-29T11:15:04;2.60;;;1.80;;
40154;SDS011;25875;48.202;16.334;2023-07-29T11:17:39;3.55;;;1.52;;
40154;SDS011;25875;48.202;16.334;2023-07-29T11:20:09;2.55;;;1.70;;
40154;SDS011;25875;48.202;16.334;2023-07-29T11:22:37;2.42;;;1.50;;
40154;SDS011;25875;48.202;16.334;2023-07-29T11:25:04;4.45;;;1.50;;
40154;SDS011;25875;48.202;16.334;2023-07-29T11:27:32;2.75;;;1.67;;
40154;SDS011;25875;48.202;16.334;2023-07-29T11:30:00;2.60;;;1.52;;
40154;SDS011;25875;48.202;16.334;2023-07-29T11:32:31;2.28;;;1.48;;
40154;SDS011;25875;48.202;16.334;2023-07-29T11:35:01;2.15;;;1.40;;
40154;SDS011;25875;48.202;16.334;2023-07-29T11:37:30;2.67;;;1.70;;
40154;SDS011;25875;48.202;16.334;2023-07-29T11:39:56;3.22;;;1.55;;
40154;SDS011;25875;48.202;16.334;2023-07-29T11:42:24;3.85;;;1.70;;
40154;SDS011;25875;48.202;16.334;2023-07-29T11:44:52;2.35;;;1.50;;
40154;SDS011;25875;48.202;16.334;2023-07-29T11:47:19;2.78;;;1.50;;
40154;SDS011;25875;48.202;16.334;2023-07-29T11:49:45;2.42;;;1.50;;
40154;SDS011;25875;48.202;16.334;2023-07-29T11:52:12;2.85;;;1.60;;
40154;SDS011;25875;48.202;16.334;2023-07-29T11:54:40;4.13;;;1.42;;
40154;SDS011;25875;48.202;16.334;2023-07-29T11:57:07;2.40;;;1.50;;
40154;SDS011;25875;48.202;16.334;2023-07-29T11:59:35;3.47;;;1.63;;
40154;SDS011;25875;48.202;16.334;2023-07-29T12:02:05;4.80;;;1.55;;
40154;SDS011;25875;48.202;16.334;2023-07-29T12:04:34;2.22;;;1.45;;
40154;SDS011;25875;48.202;16.334;2023-07-29T12:07:01;2.35;;;1.42;;
40154;SDS011;25875;48.202;16.334;2023-07-29T12:09:29;2.60;;;1.60;;
40154;SDS011;25875;48.202;16.334;2023-07-29T12:11:58;2.42;;;1.60;;
40154;SDS011;25875;48.202;16.334;2023-07-29T12:14:25;2.97;;;1.73;;
40154;SDS011;25875;48.202;16.334;2023-07-29T12:16:53;2.85;;;1.73;;
40154;SDS011;25875;48.202;16.334;2023-07-29T12:19:19;3.45;;;1.80;;
40154;SDS011;25875;48.202;16.334;2023-07-29T12:21:47;2.80;;;1.88;;
40154;SDS011;25875;48.202;16.334;2023-07-29T12:24:14;5.78;;;2.40;;
40154;SDS011;25875;48.202;16.334;2023-07-29T12:26:40;2.88;;;1.73;;
40154;SDS011;25875;48.202;16.334;2023-07-29T12:29:12;4.03;;;2.22;;
40154;SDS011;25875;48.202;16.334;2023-07-29T12:31:39;3.03;;;1.90;;
40154;SDS011;25875;48.202;16.334;2023-07-29T12:34:06;8.88;;;2.92;;
40154;SDS011;25875;48.202;16.334;2023-07-29T12:36:43;4.30;;;2.33;;
40154;SDS011;25875;48.202;16.334;2023-07-29T12:39:17;3.85;;;2.00;;
40154;SDS011;25875;48.202;16.334;2023-07-29T12:41:45;7.72;;;2.00;;
40154;SDS011;25875;48.202;16.334;2023-07-29T12:44:13;3.53;;;2.10;;
40154;SDS011;25875;48.202;16.334;2023-07-29T12:46:40;3.25;;;2.20;;
40154;SDS011;25875;48.202;16.334;2023-07-29T12:49:07;3.80;;;2.22;;
40154;SDS011;25875;48.202;16.334;2023-07-29T12:51:34;4.07;;;2.30;;
40154;SDS011;25875;48.202;16.334;2023-07-29T12:54:01;3.20;;;1.92;;
40154;SDS011;25875;48.202;16.334;2023-07-29T12:56:29;3.15;;;1.90;;
40154;SDS011;25875;48.202;16.334;2023-07-29T12:58:56;4.03;;;1.75;;
40154;SDS011;25875;48.202;16.334;2023-07-29T13:01:25;3.63;;;1.65;;
40154;SDS011;25875;48.202;16.334;2023-07-29T13:03:52;2.90;;;1.85;;
40154;SDS011;25875;48.202;16.334;2023-07-29T13:06:19;3.35;;;2.00;;
40154;SDS011;25875;48.202;16.334;2023-07-29T13:08:46;2.45;;;1.77;;
40154;SDS011;25875;48.202;16.334;2023-07-29T13:11:13;3.67;;;1.80;;
40154;SDS011;25875;48.202;16.334;2023-07-29T13:13:41;3.42;;;1.83;;
40154;SDS011;25875;48.202;16.334;2023-07-29T13:16:08;2.92;;;1.70;;
40154;SDS011;25875;48.202;16.334;2023-07-29T13:18:37;4.80;;;1.95;;
40154;SDS011;25875;48.202;16.334;2023-07-29T13:21:03;3.60;;;1.40;;
40154;SDS011;25875;48.202;16.334;2023-07-29T13:23:31;3.10;;;1.75;;
40154;SDS011;25875;48.202;16.334;2023-07-29T13:25:57;3.28;;;1.65;;
40154;SDS011;25875;48.202;16.334;2023-07-29T13:28:24;2.72;;;2.03;;
40154;SDS011;25875;48.202;16.334;2023-07-29T13:30:51;3.67;;;1.80;;
40154;SDS011;25875;48.202;16.334;2023-07-29T13:33:18;5.18;;;1.75;;
40154;SDS011;25875;48.202;16.334;2023-07-29T13:35:46;2.33;;;1.50;;
40154;SDS011;25875;48.202;16.334;2023-07-29T13:38:13;2.63;;;1.90;;
40154;SDS011;25875;48.202;16.334;2023-07-29T13:40:41;3.13;;;1.88;;
40154;SDS011;25875;48.202;16.334;2023-07-29T13:43:08;3.90;;;2.00;;
40154;SDS011;25875;48.202;16.334;2023-07-29T13:45:35;3.10;;;1.85;;
40154;SDS011;25875;48.202;16.334;2023-07-29T13:48:01;2.90;;;1.90;;
40154;SDS011;25875;48.202;16.334;2023-07-29T13:50:28;2.88;;;1.85;;
40154;SDS011;25875;48.202;16.334;2023-07-29T13:52:56;3.20;;;1.90;;
40154;SDS011;25875;48.202;16.334;2023-07-29T13:55:23;2.83;;;1.63;;
40154;SDS011;25875;48.202;16.334;2023-07-29T13:57:51;3.05;;;1.90;;
40154;SDS011;25875;48.202;16.334;2023-07-29T14:00:18;4.93;;;2.15;;
40154;SDS011;25875;48.202;16.334;2023-07-29T14:02:45;2.40;;;1.60;;
40154;SDS011;25875;48.202;16.334;2023-07-29T14:05:12;2.92;;;2.17;;
40154;SDS011;25875;48.202;16.334;2023-07-29T14:07:39;2.70;;;1.98;;
40154;SDS011;25875;48.202;16.334;2023-07-29T14:10:07;2.40;;;1.65;;
40154;SDS011;25875;48.202;16.334;2023-07-29T14:12:34;2.97;;;1.80;;
40154;SDS011;25875;48.202;16.334;2023-07-29T14:15:01;3.03;;;1.90;;
40154;SDS011;25875;48.202;16.334;2023-07-29T14:17:29;2.70;;;1.88;;
40154;SDS011;25875;48.202;16.334;2023-07-29T14:19:56;2.75;;;1.83;;
40154;SDS011;25875;48.202;16.334;2023-07-29T14:22:22;3.17;;;2.10;;
40154;SDS011;25875;48.202;16.334;2023-07-29T14:24:49;2.60;;;1.77;;
40154;SDS011;25875;48.202;16.334;2023-07-29T14:27:17;2.88;;;1.90;;
40154;SDS011;25875;48.202;16.334;2023-07-29T14:29:44;3.33;;;2.15;;
40154;SDS011;25875;48.202;16.334;2023-07-29T14:32:11;2.88;;;1.95;;
40154;SDS011;25875;48.202;16.334;2023-07-29T14:34:38;3.03;;;1.70;;
40154;SDS011;25875;48.202;16.334;2023-07-29T14:37:06;3.10;;;1.70;;
40154;SDS011;25875;48.202;16.334;2023-07-29T14:39:33;2.92;;;2.10;;